createdAt,value
2018-07-05T00:01:37.257Z,4.60
2018-07-05T00:04:16.819Z,4.53
2018-07-05T00:06:56.399Z,4.90
2018-07-05T00:09:35.972Z,4.70
2018-07-05T00:12:15.531Z,4.80
2018-07-05T00:14:55.131Z,4.67
2018-07-05T00:17:34.621Z,4.77
2018-07-05T00:20:14.223Z,4.93
2018-07-05T00:22:53.797Z,4.60
2018-07-05T00:25:33.298Z,4.07
2018-07-05T00:28:12.920Z,4.57
2018-07-05T00:30:52.384Z,4.47
2018-07-05T00:33:31.966Z,4.80
2018-07-05T00:36:11.643Z,4.20
2018-07-05T00:38:51.355Z,4.07
2018-07-05T00:41:30.983Z,3.90
2018-07-05T00:44:10.618Z,4.63
2018-07-05T00:46:50.286Z,4.53
2018-07-05T00:49:29.928Z,4.53
2018-07-05T00:52:09.539Z,4.40
2018-07-05T00:54:49.299Z,4.37
2018-07-05T00:57:28.923Z,4.03
2018-07-05T01:00:08.682Z,4.63
2018-07-05T01:02:48.340Z,4.47
2018-07-05T01:05:27.858Z,4.50
2018-07-05T01:08:07.481Z,4.40
2018-07-05T01:10:47.180Z,4.90
2018-07-05T01:13:26.756Z,5.20
2018-07-05T01:16:06.340Z,4.47
2018-07-05T01:18:45.832Z,4.87
2018-07-05T01:21:25.313Z,5.00
2018-07-05T01:24:04.819Z,4.60
2018-07-05T01:26:44.351Z,5.07
2018-07-05T01:29:24.035Z,4.97
2018-07-05T01:32:03.515Z,4.93
2018-07-05T01:34:43.184Z,4.77
2018-07-05T01:37:22.694Z,5.33
2018-07-05T01:40:02.367Z,5.00
2018-07-05T01:42:42.036Z,5.97
2018-07-05T01:45:21.592Z,4.93
2018-07-05T01:48:01.141Z,5.60
2018-07-05T01:50:40.779Z,5.43
2018-07-05T01:53:20.460Z,5.37
2018-07-05T01:56:00.158Z,5.00
2018-07-05T01:58:39.832Z,4.90
2018-07-05T02:01:19.486Z,4.63
2018-07-05T02:03:59.050Z,4.97
2018-07-05T02:06:38.577Z,4.83
2018-07-05T02:09:18.153Z,5.70
2018-07-05T02:11:57.807Z,5.30
2018-07-05T02:14:37.427Z,5.23
2018-07-05T02:17:17.090Z,4.77
2018-07-05T02:19:56.720Z,5.60
2018-07-05T02:22:36.359Z,5.30
2018-07-05T02:25:16.002Z,5.27
2018-07-05T02:27:55.634Z,5.30
2018-07-05T02:30:35.284Z,4.70
2018-07-05T02:33:14.887Z,4.23
2018-07-05T02:35:54.419Z,4.70
2018-07-05T02:38:33.947Z,4.40
2018-07-05T02:41:13.575Z,5.13
2018-07-05T02:43:53.258Z,5.10
2018-07-05T02:46:32.915Z,5.33
2018-07-05T02:49:12.730Z,4.83
2018-07-05T02:51:52.414Z,5.33
2018-07-05T02:54:32.097Z,5.03
2018-07-05T02:57:11.912Z,5.10
2018-07-05T02:59:51.571Z,4.97
2018-07-05T03:02:31.209Z,5.00
2018-07-05T03:05:10.815Z,5.93
2018-07-05T03:07:50.476Z,6.53
2018-07-05T03:10:30.083Z,5.60
2018-07-05T03:13:09.683Z,5.60
2018-07-05T03:15:49.286Z,5.77
2018-07-05T03:18:28.888Z,6.50
2018-07-05T03:21:08.575Z,6.63
2018-07-05T03:23:48.355Z,5.90
2018-07-05T03:26:27.994Z,6.60
2018-07-05T03:29:07.715Z,6.13
2018-07-05T03:31:47.351Z,6.50
2018-07-05T03:34:26.987Z,7.17
2018-07-05T03:37:06.690Z,7.07
2018-07-05T03:39:46.331Z,6.17
2018-07-05T03:42:26.100Z,6.73
2018-07-05T03:45:05.718Z,6.00
2018-07-05T03:47:45.319Z,5.47
2018-07-05T03:50:24.983Z,5.67
2018-07-05T03:53:04.484Z,5.23
2018-07-05T03:55:44.139Z,5.37
2018-07-05T03:58:23.757Z,5.73
2018-07-05T04:01:03.225Z,5.33
2018-07-05T04:03:42.870Z,4.60
2018-07-05T04:06:22.336Z,5.57
2018-07-05T04:09:01.974Z,4.77
2018-07-05T04:11:41.480Z,5.33
2018-07-05T04:14:21.449Z,5.63
2018-07-05T04:17:01.008Z,5.90
2018-07-05T04:19:45.514Z,5.17
2018-07-05T04:22:25.206Z,6.60
2018-07-05T04:25:05.692Z,7.07
2018-07-05T04:27:45.069Z,6.77
2018-07-05T04:30:24.722Z,7.70
2018-07-05T04:33:04.236Z,6.87
2018-07-05T04:35:43.838Z,8.70
2018-07-05T04:38:36.332Z,7.93
2018-07-05T04:41:15.846Z,8.40
2018-07-05T04:43:55.427Z,8.67
2018-07-05T04:46:35.081Z,8.67
2018-07-05T04:49:14.634Z,8.67
2018-07-05T04:51:54.166Z,9.53
2018-07-05T04:54:33.873Z,11.17
2018-07-05T04:57:13.633Z,9.90
2018-07-05T04:59:53.230Z,11.10
2018-07-05T05:02:33.791Z,10.53
2018-07-05T05:05:13.436Z,9.83
2018-07-05T05:07:55.896Z,11.13
2018-07-05T05:10:36.187Z,9.47
2018-07-05T05:13:16.117Z,8.10
2018-07-05T05:15:56.024Z,8.73
2018-07-05T05:18:35.784Z,8.00
2018-07-05T05:21:15.554Z,8.43
2018-07-05T05:23:55.044Z,7.47
2018-07-05T05:26:34.973Z,7.90
2018-07-05T05:29:14.528Z,8.93
2018-07-05T05:31:54.235Z,8.90
2018-07-05T05:34:33.831Z,7.83
2018-07-05T05:37:13.484Z,8.33
2018-07-05T05:39:53.190Z,7.17
2018-07-05T05:42:32.813Z,7.87
2018-07-05T05:45:12.918Z,7.53
2018-07-05T05:47:52.617Z,7.60
2018-07-05T05:50:32.327Z,7.47
2018-07-05T05:53:11.940Z,7.20
2018-07-05T05:55:51.618Z,7.40
2018-07-05T05:58:31.277Z,7.60
2018-07-05T06:01:10.892Z,8.30
2018-07-05T06:03:50.457Z,7.53
2018-07-05T06:06:30.166Z,8.37
2018-07-05T06:09:09.882Z,7.70
2018-07-05T06:11:49.579Z,7.60
2018-07-05T06:14:29.184Z,7.87
2018-07-05T06:17:08.800Z,8.10
2018-07-05T06:19:48.361Z,9.30
2018-07-05T06:22:27.877Z,7.60
2018-07-05T06:25:07.432Z,9.27
2018-07-05T06:27:46.996Z,9.53
2018-07-05T06:30:26.537Z,8.23
2018-07-05T06:33:06.174Z,8.17
2018-07-05T06:35:45.720Z,8.57
2018-07-05T06:38:25.232Z,8.67
2018-07-05T06:41:04.881Z,8.87
2018-07-05T06:43:44.589Z,9.03
2018-07-05T06:46:24.127Z,7.47
2018-07-05T06:49:03.819Z,7.67
2018-07-05T06:51:43.410Z,8.73
2018-07-05T06:54:23.025Z,10.30
2018-07-05T06:57:02.696Z,8.20
2018-07-05T06:59:42.240Z,10.33
2018-07-05T07:02:21.907Z,9.27
2018-07-05T07:05:01.722Z,9.37
2018-07-05T07:07:41.425Z,10.17
2018-07-05T07:10:21.001Z,9.33
2018-07-05T07:13:00.630Z,10.20
2018-07-05T07:15:40.311Z,9.50
2018-07-05T07:18:20.023Z,11.43
2018-07-05T07:20:59.587Z,11.07
2018-07-05T07:23:39.195Z,12.87
2018-07-05T07:26:18.857Z,9.43
2018-07-05T07:28:58.511Z,9.83
2018-07-05T07:31:38.227Z,10.30
2018-07-05T07:34:17.790Z,10.13
2018-07-05T07:36:57.388Z,8.87
2018-07-05T07:39:37.045Z,9.73
2018-07-05T07:42:04.220Z,9.47
2018-07-05T07:44:31.391Z,10.13
2018-07-05T07:46:58.607Z,9.93
2018-07-05T07:49:25.768Z,9.70
2018-07-05T07:51:52.928Z,10.90
2018-07-05T07:54:20.111Z,10.60
2018-07-05T07:56:47.272Z,9.70
2018-07-05T07:59:14.447Z,10.23
2018-07-05T08:01:41.769Z,10.43
2018-07-05T08:04:08.959Z,10.33
2018-07-05T08:06:36.142Z,12.10
2018-07-05T08:09:04.502Z,11.87
2018-07-05T08:11:31.728Z,14.33
2018-07-05T08:13:58.898Z,13.37
2018-07-05T08:16:26.074Z,14.17
2018-07-05T08:18:53.256Z,14.27
2018-07-05T08:21:20.407Z,13.90
2018-07-05T08:23:47.649Z,13.57
2018-07-05T08:26:14.796Z,13.40
2018-07-05T08:28:42.003Z,13.90
2018-07-05T08:31:09.171Z,13.27
2018-07-05T08:33:36.357Z,14.27
2018-07-05T08:36:03.552Z,15.27
2018-07-05T08:38:30.739Z,14.60
2018-07-05T08:40:57.903Z,15.60
2018-07-05T08:43:25.121Z,11.80
2018-07-05T08:45:52.283Z,13.50
2018-07-05T08:48:19.470Z,14.40
2018-07-05T08:50:46.632Z,13.53
2018-07-05T08:53:13.801Z,13.37
2018-07-05T08:55:40.971Z,13.83
2018-07-05T08:58:08.146Z,18.17
2018-07-05T09:00:35.339Z,17.97
2018-07-05T09:03:02.570Z,16.40
2018-07-05T09:05:29.747Z,17.00
2018-07-05T09:07:56.947Z,18.27
2018-07-05T09:10:24.139Z,16.80
2018-07-05T09:12:51.313Z,16.80
2018-07-05T09:15:18.487Z,15.60
2018-07-05T09:17:45.947Z,17.10
2018-07-05T09:20:13.220Z,18.57
2018-07-05T09:22:41.089Z,17.37
2018-07-05T09:25:08.244Z,17.83
2018-07-05T09:27:35.456Z,19.67
2018-07-05T09:30:02.881Z,16.93
2018-07-05T09:32:30.055Z,15.83
2018-07-05T09:34:57.224Z,16.93
2018-07-05T09:37:24.500Z,18.83
2018-07-05T09:39:51.666Z,19.47
2018-07-05T09:42:19.394Z,22.60
2018-07-05T09:44:46.584Z,21.33
2018-07-05T09:47:13.736Z,17.57
2018-07-05T09:49:40.896Z,16.83
2018-07-05T09:52:08.087Z,14.40
2018-07-05T09:54:35.283Z,16.10
2018-07-05T09:57:02.447Z,19.67
2018-07-05T09:59:29.620Z,19.27
2018-07-05T10:01:56.781Z,21.57
2018-07-05T10:04:23.942Z,16.40
2018-07-05T10:06:51.136Z,15.67
2018-07-05T10:09:18.313Z,18.90
2018-07-05T10:11:45.679Z,16.37
2018-07-05T10:14:12.951Z,19.30
2018-07-05T10:16:40.112Z,19.60
2018-07-05T10:19:08.451Z,15.00
2018-07-05T10:21:35.617Z,20.07
2018-07-05T10:24:02.800Z,17.60
2018-07-05T10:26:30.066Z,18.47
2018-07-05T10:29:09.983Z,19.47
2018-07-05T10:31:49.716Z,16.07
2018-07-05T10:34:16.913Z,19.03
2018-07-05T10:36:44.158Z,19.93
2018-07-05T10:39:11.408Z,19.50
2018-07-05T10:41:51.083Z,16.33
2018-07-05T10:44:30.803Z,16.60
2018-07-05T10:47:10.370Z,20.27
2018-07-05T10:49:49.995Z,18.40
2018-07-05T10:52:29.802Z,14.90
2018-07-05T10:55:09.591Z,18.93
2018-07-05T10:57:49.199Z,18.93
2018-07-05T11:00:28.837Z,18.13
2018-07-05T11:03:08.467Z,16.80
2018-07-05T11:05:48.038Z,12.80
2018-07-05T11:08:27.647Z,12.73
2018-07-05T11:11:07.402Z,12.47
2018-07-05T11:13:47.132Z,12.70
2018-07-05T11:16:26.873Z,11.03
2018-07-05T11:19:06.592Z,13.70
2018-07-05T11:21:46.220Z,13.10
2018-07-05T11:24:25.901Z,11.07
2018-07-05T11:27:05.729Z,10.77
2018-07-05T11:29:45.533Z,13.30
2018-07-05T11:32:25.281Z,13.20
2018-07-05T11:35:04.812Z,14.37
2018-07-05T11:37:44.416Z,13.93
2018-07-05T11:40:24.044Z,9.57
2018-07-05T11:43:03.734Z,11.33
2018-07-05T11:45:43.373Z,11.43
2018-07-05T11:48:22.970Z,13.53
2018-07-05T11:51:02.544Z,10.33
2018-07-05T11:53:43.594Z,9.30
2018-07-05T11:56:23.367Z,9.60
2018-07-05T11:59:03.140Z,9.60
2018-07-05T12:01:42.746Z,10.30
2018-07-05T12:04:22.406Z,8.90
2018-07-05T12:07:02.117Z,9.70
2018-07-05T12:09:41.850Z,8.33
2018-07-05T12:12:21.475Z,7.93
2018-07-05T12:15:01.301Z,7.03
2018-07-05T12:17:40.747Z,9.53
2018-07-05T12:20:20.263Z,8.97
2018-07-05T12:22:59.783Z,7.30
2018-07-05T12:25:39.249Z,6.43
2018-07-05T12:28:18.751Z,7.27
2018-07-05T12:30:58.306Z,5.73
2018-07-05T12:33:37.945Z,6.20
2018-07-05T12:36:17.543Z,7.20
2018-07-05T12:38:57.153Z,7.60
2018-07-05T12:41:36.929Z,6.10
2018-07-05T12:44:16.522Z,5.67
2018-07-05T12:46:56.290Z,5.80
2018-07-05T12:49:35.871Z,5.60
2018-07-05T12:52:15.641Z,4.67
2018-07-05T12:54:55.415Z,5.30
2018-07-05T12:57:35.130Z,5.07
2018-07-05T13:00:14.920Z,5.33
2018-07-05T13:02:54.526Z,4.80
2018-07-05T13:05:34.141Z,4.40
2018-07-05T13:08:13.734Z,4.53
2018-07-05T13:10:53.247Z,4.23
2018-07-05T13:13:32.739Z,4.50
2018-07-05T13:16:12.508Z,4.50
2018-07-05T13:18:52.171Z,4.13
2018-07-05T13:21:31.714Z,4.10
2018-07-05T13:24:11.350Z,4.87
2018-07-05T13:26:50.795Z,3.70
2018-07-05T13:29:30.419Z,3.73
2018-07-05T13:32:09.972Z,5.10
2018-07-05T13:34:49.459Z,3.77
2018-07-05T13:37:29.268Z,4.53
2018-07-05T13:40:08.936Z,3.47
2018-07-05T13:42:48.595Z,4.80
2018-07-05T13:45:28.323Z,3.60
2018-07-05T13:48:07.960Z,4.10
2018-07-05T13:50:47.812Z,4.43
2018-07-05T13:53:27.855Z,4.53
2018-07-05T13:56:07.368Z,3.77
2018-07-05T13:58:46.967Z,4.60
2018-07-05T14:01:26.563Z,4.43
2018-07-05T14:04:06.241Z,4.17
2018-07-05T14:06:45.860Z,4.53
2018-07-05T14:09:25.404Z,4.37
2018-07-05T14:12:05.036Z,2.93
2018-07-05T14:14:44.698Z,3.80
2018-07-05T14:17:24.349Z,4.00
2018-07-05T14:20:04.968Z,3.80
2018-07-05T14:22:44.564Z,3.50
2018-07-05T14:25:24.148Z,3.30
2018-07-05T14:28:03.734Z,3.63
2018-07-05T14:30:43.408Z,3.77
2018-07-05T14:33:22.924Z,3.80
2018-07-05T14:36:02.501Z,3.80
2018-07-05T14:38:42.170Z,3.97
2018-07-05T14:41:21.772Z,3.77
2018-07-05T14:44:01.437Z,3.60
2018-07-05T14:46:40.884Z,3.70
2018-07-05T14:49:20.483Z,3.70
2018-07-05T14:52:00.109Z,5.37
2018-07-05T14:54:39.627Z,5.10
2018-07-05T14:57:19.147Z,4.00
2018-07-05T14:59:58.674Z,5.27
2018-07-05T15:02:38.249Z,3.40
2018-07-05T15:05:18.023Z,4.60
2018-07-05T15:07:57.478Z,3.63
2018-07-05T15:10:37.085Z,3.70
2018-07-05T15:13:16.608Z,3.97
2018-07-05T15:15:56.322Z,3.20
2018-07-05T15:18:35.859Z,3.47
2018-07-05T15:21:15.388Z,3.23
2018-07-05T15:23:55.038Z,2.97
2018-07-05T15:26:34.617Z,3.40
2018-07-05T15:29:14.159Z,3.40
2018-07-05T15:31:53.659Z,2.30
2018-07-05T15:34:33.296Z,2.90
2018-07-05T15:37:13.015Z,2.90
2018-07-05T15:39:52.629Z,2.67
2018-07-05T15:42:32.292Z,2.30
2018-07-05T15:45:11.875Z,2.77
2018-07-05T15:47:51.482Z,2.53
2018-07-05T15:50:31.234Z,2.40
2018-07-05T15:53:10.901Z,2.50
2018-07-05T15:55:50.390Z,2.50
2018-07-05T15:58:30.025Z,2.37
2018-07-05T16:01:09.611Z,2.00
2018-07-05T16:03:49.143Z,2.07
2018-07-05T16:06:28.691Z,2.20
2018-07-05T16:09:08.326Z,2.00
2018-07-05T16:11:48.007Z,2.20
2018-07-05T16:14:28.761Z,2.20
2018-07-05T16:17:08.390Z,2.50
2018-07-05T16:19:48.254Z,2.70
2018-07-05T16:22:28.442Z,2.80
2018-07-05T16:25:08.038Z,2.87
2018-07-05T16:27:47.985Z,2.60
2018-07-05T16:30:27.884Z,3.00
2018-07-05T16:33:07.477Z,2.47
2018-07-05T16:35:47.135Z,2.70
2018-07-05T16:38:26.816Z,2.70
2018-07-05T16:41:06.951Z,2.83
2018-07-05T16:43:46.889Z,2.40
2018-07-05T16:46:26.515Z,3.23
2018-07-05T16:49:06.071Z,3.40
2018-07-05T16:51:45.628Z,3.00
2018-07-05T16:54:25.118Z,2.50
2018-07-05T16:57:04.683Z,2.97
2018-07-05T16:59:44.250Z,3.30
2018-07-05T17:02:23.792Z,2.70
2018-07-05T17:05:03.327Z,3.30
2018-07-05T17:07:42.965Z,2.50
2018-07-05T17:10:22.823Z,2.60
2018-07-05T17:13:02.489Z,2.73
2018-07-05T17:15:42.096Z,2.50
2018-07-05T17:18:21.767Z,2.53
2018-07-05T17:21:01.772Z,2.37
2018-07-05T17:23:41.320Z,2.33
2018-07-05T17:26:20.946Z,2.60
2018-07-05T17:29:00.408Z,2.30
2018-07-05T17:31:40.156Z,2.90
2018-07-05T17:34:19.960Z,2.80
2018-07-05T17:36:59.619Z,3.13
2018-07-05T17:39:39.306Z,2.47
2018-07-05T17:42:19.028Z,2.90
2018-07-05T17:44:58.772Z,2.70
2018-07-05T17:47:38.317Z,2.73
2018-07-05T17:50:17.862Z,2.77
2018-07-05T17:52:57.490Z,2.80
2018-07-05T17:55:37.379Z,2.90
2018-07-05T17:58:17.040Z,2.23
2018-07-05T18:00:56.742Z,2.37
2018-07-05T18:03:36.481Z,2.37
2018-07-05T18:06:16.251Z,2.17
2018-07-05T18:08:55.985Z,2.33
2018-07-05T18:11:35.623Z,2.40
2018-07-05T18:14:15.157Z,2.30
2018-07-05T18:16:54.757Z,2.20
2018-07-05T18:19:34.407Z,2.20
2018-07-05T18:22:13.989Z,1.90
2018-07-05T18:24:53.454Z,2.30
2018-07-05T18:27:33.015Z,2.00
2018-07-05T18:30:12.521Z,2.17
2018-07-05T18:32:52.188Z,1.63
2018-07-05T18:35:31.651Z,1.83
2018-07-05T18:38:11.673Z,1.93
2018-07-05T18:40:51.341Z,1.53
2018-07-05T18:43:30.961Z,1.77
2018-07-05T18:46:10.713Z,2.00
2018-07-05T18:48:50.408Z,1.70
2018-07-05T18:51:30.244Z,2.07
2018-07-05T18:54:09.809Z,1.93
2018-07-05T18:56:49.589Z,1.90
2018-07-05T18:59:29.297Z,2.03
2018-07-05T19:02:08.908Z,2.10
2018-07-05T19:04:48.447Z,1.93
2018-07-05T19:07:28.084Z,1.43
2018-07-05T19:10:07.739Z,1.73
2018-07-05T19:12:47.281Z,1.80
2018-07-05T19:15:26.819Z,1.97
2018-07-05T19:18:06.467Z,1.70
2018-07-05T19:20:46.187Z,1.50
2018-07-05T19:23:25.980Z,1.77
2018-07-05T19:26:05.688Z,1.70
2018-07-05T19:28:45.315Z,1.87
2018-07-05T19:31:25.107Z,1.90
2018-07-05T19:34:04.740Z,2.20
2018-07-05T19:36:44.533Z,2.20
2018-07-05T19:39:24.254Z,1.80
2018-07-05T19:42:03.996Z,2.03
2018-07-05T19:44:44.342Z,2.23
2018-07-05T19:47:24.463Z,1.97
2018-07-05T19:50:04.248Z,1.73
2018-07-05T19:52:43.868Z,2.00
2018-07-05T19:55:23.569Z,2.20
2018-07-05T19:58:03.160Z,2.17
2018-07-05T20:00:42.794Z,2.57
2018-07-05T20:03:22.703Z,2.90
2018-07-05T20:06:02.299Z,2.60
2018-07-05T20:08:41.841Z,2.53
2018-07-05T20:11:21.440Z,2.80
2018-07-05T20:14:01.638Z,2.57
2018-07-05T20:16:41.364Z,2.50
2018-07-05T20:19:21.215Z,2.77
2018-07-05T20:22:00.900Z,2.97
2018-07-05T20:24:40.608Z,2.50
2018-07-05T20:27:20.183Z,2.67
2018-07-05T20:29:59.729Z,2.40
2018-07-05T20:32:39.382Z,2.30
2018-07-05T20:35:19.115Z,2.40
2018-07-05T20:37:58.905Z,2.20
2018-07-05T20:40:38.610Z,2.30
2018-07-05T20:43:18.325Z,2.03
2018-07-05T20:45:58.027Z,2.10
2018-07-05T20:48:37.612Z,2.10
2018-07-05T20:51:17.348Z,1.90
2018-07-05T20:53:56.940Z,1.80
2018-07-05T20:56:36.652Z,2.00
2018-07-05T20:59:16.249Z,1.60
2018-07-05T21:01:55.797Z,1.60
2018-07-05T21:04:35.386Z,1.60
2018-07-05T21:07:14.936Z,1.43
2018-07-05T21:09:54.475Z,1.40
2018-07-05T21:12:34.027Z,1.40
2018-07-05T21:15:13.639Z,1.53
2018-07-05T21:17:53.186Z,1.40
2018-07-05T21:20:33.142Z,1.70
2018-07-05T21:23:12.701Z,1.87
2018-07-05T21:25:52.246Z,1.30
2018-07-05T21:28:31.787Z,1.07
2018-07-05T21:31:11.351Z,1.20
2018-07-05T21:33:51.094Z,1.20
2018-07-05T21:36:30.795Z,1.27
2018-07-05T21:39:10.593Z,3.00
2018-07-05T21:41:50.471Z,1.57
2018-07-05T21:44:30.040Z,1.10
2018-07-05T21:47:09.694Z,1.30
2018-07-05T21:49:50.408Z,1.33
2018-07-05T21:52:29.992Z,1.17
2018-07-05T21:55:09.741Z,1.03
2018-07-05T21:57:49.274Z,1.30
2018-07-05T22:00:28.887Z,1.00
2018-07-05T22:03:08.628Z,1.00
2018-07-05T22:05:48.135Z,1.20
2018-07-05T22:08:27.845Z,0.90
2018-07-05T22:11:07.639Z,1.20
2018-07-05T22:13:47.292Z,1.30
2018-07-05T22:16:26.961Z,1.00
2018-07-05T22:19:12.085Z,1.20
2018-07-05T22:21:57.051Z,1.20
2018-07-05T22:24:42.029Z,1.03
2018-07-05T22:27:26.856Z,0.90
2018-07-05T22:30:11.708Z,1.20
2018-07-05T22:32:51.376Z,1.00
2018-07-05T22:35:31.008Z,1.10
2018-07-05T22:38:10.633Z,1.23
2018-07-05T22:40:50.375Z,1.20
2018-07-05T22:43:29.943Z,1.30
2018-07-05T22:46:09.770Z,1.37
2018-07-05T22:48:49.576Z,1.10
2018-07-05T22:51:29.362Z,1.13
2018-07-05T22:54:09.235Z,1.30
2018-07-05T22:56:48.828Z,1.43
2018-07-05T22:59:28.515Z,1.20
2018-07-05T23:02:08.192Z,1.47
2018-07-05T23:04:47.739Z,1.47
2018-07-05T23:07:27.421Z,1.57
2018-07-05T23:10:07.146Z,1.47
2018-07-05T23:12:46.894Z,1.43
2018-07-05T23:15:26.419Z,1.30
2018-07-05T23:18:06.112Z,1.20
2018-07-05T23:20:46.883Z,1.43
2018-07-05T23:23:26.591Z,1.60
2018-07-05T23:26:06.265Z,1.40
2018-07-05T23:28:45.859Z,1.50
2018-07-05T23:31:25.487Z,1.40
2018-07-05T23:34:05.166Z,1.10
2018-07-05T23:36:44.785Z,1.50
2018-07-05T23:39:24.371Z,1.83
2018-07-05T23:42:03.910Z,1.27
2018-07-05T23:44:43.565Z,1.57
2018-07-05T23:47:23.259Z,2.10
2018-07-05T23:50:02.956Z,1.80
2018-07-05T23:52:42.608Z,1.60
2018-07-05T23:55:22.272Z,1.87
2018-07-05T23:58:01.874Z,1.50
